Shoukeimaruno.3 — JI3587 — position and weather

sailwx.info

Track history (hours):
 
Tides and Currents Weather Stations Pressure Air Temp Water Temp Dewpoint Dewpoint Depression Visibility Wind Speed Wind Dir Waves Ship Positions

Shoukeimaruno.3

Last reported at 2016-Aug-27 03:24 UTC. Time now 2016-Aug-28 00:31 UTC.
Position N 35°02' E 140°12'.

Length 77 m; draft 3.8 m.

Type: Cargo ship. MMSI: 431300325.

Date/timePositionNaut miles runAvg speedWind from/ knotsBaromVisibWave heightAir tempDewpointWater temp
2016-Aug-27 03:24N 35°02' E 140°12'1210.4
2016-Aug-27 02:16N 34°55' E 139°60'10 9.7
2016-Aug-27 01:14N 34°53' E 139°48'811.3
2016-Aug-27 00:33N 35°01' E 139°44'1211.7
2016-Aug-26 23:34N 35°12' E 139°46'1111.1
2016-Aug-26 22:34N 35°22' E 139°42'6 6.1
2016-Aug-26 21:32N 35°28' E 139°39'0 0.0
2016-Aug-26 20:32N 35°28' E 139°39'0 0.0
2016-Aug-26 19:32N 35°28' E 139°39'0 0.0
2016-Aug-26 18:32N 35°28' E 139°39'0 0.0
2016-Aug-26 17:32N 35°28' E 139°39'0 0.0
2016-Aug-26 16:32N 35°28' E 139°39'0 0.0
2016-Aug-26 15:32N 35°28' E 139°39'0 0.0
2016-Aug-26 14:32N 35°28' E 139°39'0 0.0
2016-Aug-26 13:32N 35°28' E 139°39'0 0.0
2016-Aug-26 12:32N 35°28' E 139°39'0 0.0
2016-Aug-26 11:32N 35°28' E 139°39'0 0.0
2016-Aug-26 10:32N 35°28' E 139°39'2 2.2
2016-Aug-26 09:34N 35°27' E 139°41'4 3.6
2016-Aug-26 08:32N 35°30' E 139°44'0 0.0
2016-Aug-26 07:32N 35°30' E 139°44'0 0.0
2016-Aug-26 06:32N 35°30' E 139°44'0 0.0
2016-Aug-26 04:32N 35°30' E 139°44'0 0.0
2016-Aug-26 03:32N 35°30' E 139°44'0 0.0
2016-Aug-26 02:32N 35°30' E 139°44'0 0.0
2016-Aug-26 01:32N 35°30' E 139°44'0 0.0
2016-Aug-26 00:32N 35°30' E 139°44'0 0.0
2016-Aug-25 23:32N 35°30' E 139°44'1 1.3
2016-Aug-25 22:33N 35°30' E 139°45'2 2.5
2016-Aug-25 21:33N 35°29' E 139°48'0 0.0
2016-Aug-25 20:33N 35°29' E 139°48'0 0.0
2016-Aug-25 19:33N 35°29' E 139°48'0 0.0
2016-Aug-25 18:33N 35°29' E 139°48'0 0.0
2016-Aug-25 17:33N 35°29' E 139°48'0 0.0
2016-Aug-25 16:33N 35°29' E 139°48'1010.5
2016-Aug-25 15:33N 35°19' E 139°44'1010.2
2016-Aug-25 14:33N 35°09' E 139°46'1211.6
2016-Aug-25 13:33N 34°58' E 139°44'12 9.6
2016-Aug-25 12:18N 34°53' E 139°57'911.2
2016-Aug-25 11:31N 34°59' E 140°05'2610.7
2016-Aug-25 09:07N 35°15' E 140°30'1811.6
2016-Aug-25 07:33N 35°30' E 140°43'28 9.2
2016-Aug-25 04:32N 35°57' E 140°43'3 0.7
2016-Aug-25 00:17N 35°55' E 140°40'0 0.0
2016-Aug-24 23:31N 35°55' E 140°40'5 2.0
2016-Aug-24 21:09N 35°59' E 140°42'0 0.0
2016-Aug-24 19:15N 35°59' E 140°42'0 0.0
2016-Aug-24 16:21N 35°59' E 140°42'0 0.0
2016-Aug-24 15:27N 35°59' E 140°42'0 0.1
2016-Aug-24 14:33N 35°59' E 140°42'0 0.0
2016-Aug-24 13:30N 35°59' E 140°42'5 4.8
2016-Aug-24 12:33N 36°03' E 140°45'  
Track history (hours):
 
Tides and Currents Weather Stations Pressure Air Temp Water Temp Dewpoint Dewpoint Depression Visibility Wind Speed Wind Dir Waves Ship Positions

Shoukeimaruno.3

Last reported at 2016-Aug-27 03:24 UTC. Time now 2016-Aug-28 00:31 UTC.
Position N 35°02' E 140°12'.

Length 77 m; draft 3.8 m.

Type: Cargo ship. MMSI: 431300325.

Date/timePositionNaut miles runAvg speedWind from/ knotsBaromVisibWave heightAir tempDewpointWater temp
2016-Aug-27 03:24N 35°02' E 140°12'1210.4
2016-Aug-27 02:16N 34°55' E 139°60'10 9.7
2016-Aug-27 01:14N 34°53' E 139°48'811.3
2016-Aug-27 00:33N 35°01' E 139°44'1211.7
2016-Aug-26 23:34N 35°12' E 139°46'1111.1
2016-Aug-26 22:34N 35°22' E 139°42'6 6.1
2016-Aug-26 21:32N 35°28' E 139°39'0 0.0
2016-Aug-26 20:32N 35°28' E 139°39'0 0.0
2016-Aug-26 19:32N 35°28' E 139°39'0 0.0
2016-Aug-26 18:32N 35°28' E 139°39'0 0.0
2016-Aug-26 17:32N 35°28' E 139°39'0 0.0
2016-Aug-26 16:32N 35°28' E 139°39'0 0.0
2016-Aug-26 15:32N 35°28' E 139°39'0 0.0
2016-Aug-26 14:32N 35°28' E 139°39'0 0.0
2016-Aug-26 13:32N 35°28' E 139°39'0 0.0
2016-Aug-26 12:32N 35°28' E 139°39'0 0.0
2016-Aug-26 11:32N 35°28' E 139°39'0 0.0
2016-Aug-26 10:32N 35°28' E 139°39'2 2.2
2016-Aug-26 09:34N 35°27' E 139°41'4 3.6
2016-Aug-26 08:32N 35°30' E 139°44'0 0.0
2016-Aug-26 07:32N 35°30' E 139°44'0 0.0
2016-Aug-26 06:32N 35°30' E 139°44'0 0.0
2016-Aug-26 04:32N 35°30' E 139°44'0 0.0
2016-Aug-26 03:32N 35°30' E 139°44'0 0.0
2016-Aug-26 02:32N 35°30' E 139°44'0 0.0
2016-Aug-26 01:32N 35°30' E 139°44'0 0.0
2016-Aug-26 00:32N 35°30' E 139°44'0 0.0
2016-Aug-25 23:32N 35°30' E 139°44'1 1.3
2016-Aug-25 22:33N 35°30' E 139°45'2 2.5
2016-Aug-25 21:33N 35°29' E 139°48'0 0.0
2016-Aug-25 20:33N 35°29' E 139°48'0 0.0
2016-Aug-25 19:33N 35°29' E 139°48'0 0.0
2016-Aug-25 18:33N 35°29' E 139°48'0 0.0
2016-Aug-25 17:33N 35°29' E 139°48'0 0.0
2016-Aug-25 16:33N 35°29' E 139°48'1010.5
2016-Aug-25 15:33N 35°19' E 139°44'1010.2
2016-Aug-25 14:33N 35°09' E 139°46'1211.6
2016-Aug-25 13:33N 34°58' E 139°44'12 9.6
2016-Aug-25 12:18N 34°53' E 139°57'911.2
2016-Aug-25 11:31N 34°59' E 140°05'2610.7
2016-Aug-25 09:07N 35°15' E 140°30'1811.6
2016-Aug-25 07:33N 35°30' E 140°43'28 9.2
2016-Aug-25 04:32N 35°57' E 140°43'3 0.7
2016-Aug-25 00:17N 35°55' E 140°40'0 0.0
2016-Aug-24 23:31N 35°55' E 140°40'5 2.0
2016-Aug-24 21:09N 35°59' E 140°42'0 0.0
2016-Aug-24 19:15N 35°59' E 140°42'0 0.0
2016-Aug-24 16:21N 35°59' E 140°42'0 0.0
2016-Aug-24 15:27N 35°59' E 140°42'0 0.1
2016-Aug-24 14:33N 35°59' E 140°42'0 0.0
2016-Aug-24 13:30N 35°59' E 140°42'5 4.8
2016-Aug-24 12:33N 36°03' E 140°45'  

Dump ship's entire track history